sensor_id;sensor_type;location;lat;lon;timestamp;P1;durP1;ratioP1;P2;durP2;ratioP2
21786;SDS011;11055;50.870;4.316;2024-03-07T00:00:00;16.48;;;12.50;;
21786;SDS011;11055;50.870;4.316;2024-03-07T00:02:29;17.38;;;12.98;;
21786;SDS011;11055;50.870;4.316;2024-03-07T00:04:54;16.52;;;13.68;;
21786;SDS011;11055;50.870;4.316;2024-03-07T00:07:20;16.40;;;13.13;;
21786;SDS011;11055;50.870;4.316;2024-03-07T00:09:49;18.08;;;13.98;;
21786;SDS011;11055;50.870;4.316;2024-03-07T00:12:17;20.60;;;14.05;;
21786;SDS011;11055;50.870;4.316;2024-03-07T00:14:43;20.02;;;14.10;;
21786;SDS011;11055;50.870;4.316;2024-03-07T00:17:08;19.70;;;14.10;;
21786;SDS011;11055;50.870;4.316;2024-03-07T00:19:34;19.75;;;14.45;;
21786;SDS011;11055;50.870;4.316;2024-03-07T00:22:00;19.75;;;13.80;;
21786;SDS011;11055;50.870;4.316;2024-03-07T00:24:25;19.02;;;14.73;;
21786;SDS011;11055;50.870;4.316;2024-03-07T00:26:54;25.25;;;15.75;;
21786;SDS011;11055;50.870;4.316;2024-03-07T00:29:20;20.13;;;15.57;;
21786;SDS011;11055;50.870;4.316;2024-03-07T00:31:46;22.95;;;17.27;;
21786;SDS011;11055;50.870;4.316;2024-03-07T00:34:15;24.08;;;16.95;;
21786;SDS011;11055;50.870;4.316;2024-03-07T00:36:42;22.75;;;16.67;;
21786;SDS011;11055;50.870;4.316;2024-03-07T00:39:08;23.73;;;16.95;;
21786;SDS011;11055;50.870;4.316;2024-03-07T00:41:36;26.77;;;18.20;;
21786;SDS011;11055;50.870;4.316;2024-03-07T00:44:06;24.83;;;18.42;;
21786;SDS011;11055;50.870;4.316;2024-03-07T00:46:34;26.00;;;18.98;;
21786;SDS011;11055;50.870;4.316;2024-03-07T00:49:01;25.85;;;19.05;;
21786;SDS011;11055;50.870;4.316;2024-03-07T00:51:27;30.27;;;20.60;;
21786;SDS011;11055;50.870;4.316;2024-03-07T00:53:53;31.70;;;20.45;;
21786;SDS011;11055;50.870;4.316;2024-03-07T00:56:19;30.00;;;20.77;;
21786;SDS011;11055;50.870;4.316;2024-03-07T00:58:46;31.67;;;22.55;;
21786;SDS011;11055;50.870;4.316;2024-03-07T01:01:18;32.53;;;23.10;;
21786;SDS011;11055;50.870;4.316;2024-03-07T01:03:44;36.03;;;24.45;;
21786;SDS011;11055;50.870;4.316;2024-03-07T01:06:10;34.40;;;24.08;;
21786;SDS011;11055;50.870;4.316;2024-03-07T01:08:36;30.65;;;23.40;;
21786;SDS011;11055;50.870;4.316;2024-03-07T01:11:03;34.15;;;24.10;;
21786;SDS011;11055;50.870;4.316;2024-03-07T01:13:37;31.25;;;23.58;;
21786;SDS011;11055;50.870;4.316;2024-03-07T01:16:03;36.70;;;26.05;;
21786;SDS011;11055;50.870;4.316;2024-03-07T01:18:30;38.03;;;25.38;;
21786;SDS011;11055;50.870;4.316;2024-03-07T01:20:58;37.53;;;25.65;;
21786;SDS011;11055;50.870;4.316;2024-03-07T01:23:27;37.67;;;25.77;;
21786;SDS011;11055;50.870;4.316;2024-03-07T01:25:55;40.00;;;29.05;;
21786;SDS011;11055;50.870;4.316;2024-03-07T01:28:21;38.00;;;26.48;;
21786;SDS011;11055;50.870;4.316;2024-03-07T01:30:48;38.97;;;27.33;;
21786;SDS011;11055;50.870;4.316;2024-03-07T01:33:17;39.80;;;28.02;;
21786;SDS011;11055;50.870;4.316;2024-03-07T01:35:46;40.05;;;28.10;;
21786;SDS011;11055;50.870;4.316;2024-03-07T01:38:12;40.75;;;27.80;;
21786;SDS011;11055;50.870;4.316;2024-03-07T01:40:39;39.47;;;27.85;;
21786;SDS011;11055;50.870;4.316;2024-03-07T01:43:06;42.20;;;28.58;;
21786;SDS011;11055;50.870;4.316;2024-03-07T01:45:32;42.97;;;28.77;;
21786;SDS011;11055;50.870;4.316;2024-03-07T01:47:58;43.50;;;29.63;;
21786;SDS011;11055;50.870;4.316;2024-03-07T01:50:24;47.95;;;29.77;;
21786;SDS011;11055;50.870;4.316;2024-03-07T01:52:50;47.00;;;31.08;;
21786;SDS011;11055;50.870;4.316;2024-03-07T01:55:16;45.70;;;31.23;;
21786;SDS011;11055;50.870;4.316;2024-03-07T01:57:43;44.03;;;31.88;;
21786;SDS011;11055;50.870;4.316;2024-03-07T02:00:10;47.42;;;31.75;;
21786;SDS011;11055;50.870;4.316;2024-03-07T02:02:36;54.10;;;33.47;;
21786;SDS011;11055;50.870;4.316;2024-03-07T02:05:02;50.70;;;34.58;;
21786;SDS011;11055;50.870;4.316;2024-03-07T02:07:29;54.03;;;33.92;;
21786;SDS011;11055;50.870;4.316;2024-03-07T02:10:04;49.78;;;32.88;;
21786;SDS011;11055;50.870;4.316;2024-03-07T02:12:31;54.42;;;34.97;;
21786;SDS011;11055;50.870;4.316;2024-03-07T02:14:57;52.95;;;35.33;;
21786;SDS011;11055;50.870;4.316;2024-03-07T02:17:26;54.92;;;35.60;;
21786;SDS011;11055;50.870;4.316;2024-03-07T02:19:52;51.20;;;34.63;;
21786;SDS011;11055;50.870;4.316;2024-03-07T02:22:18;51.85;;;35.13;;
21786;SDS011;11055;50.870;4.316;2024-03-07T02:24:44;56.47;;;36.28;;
21786;SDS011;11055;50.870;4.316;2024-03-07T02:27:11;55.97;;;35.67;;
21786;SDS011;11055;50.870;4.316;2024-03-07T02:29:37;60.47;;;38.67;;
21786;SDS011;11055;50.870;4.316;2024-03-07T02:32:03;54.80;;;38.25;;
21786;SDS011;11055;50.870;4.316;2024-03-07T02:34:29;62.25;;;39.38;;
21786;SDS011;11055;50.870;4.316;2024-03-07T02:36:55;62.28;;;39.05;;
21786;SDS011;11055;50.870;4.316;2024-03-07T02:39:20;59.10;;;38.28;;
21786;SDS011;11055;50.870;4.316;2024-03-07T02:41:47;60.40;;;39.53;;
21786;SDS011;11055;50.870;4.316;2024-03-07T02:44:15;61.15;;;39.08;;
21786;SDS011;11055;50.870;4.316;2024-03-07T02:46:41;57.85;;;38.50;;
21786;SDS011;11055;50.870;4.316;2024-03-07T02:49:07;61.80;;;40.60;;
21786;SDS011;11055;50.870;4.316;2024-03-07T02:51:33;61.03;;;39.80;;
21786;SDS011;11055;50.870;4.316;2024-03-07T02:53:58;61.65;;;40.22;;
21786;SDS011;11055;50.870;4.316;2024-03-07T02:56:24;57.22;;;38.75;;
21786;SDS011;11055;50.870;4.316;2024-03-07T02:58:50;63.22;;;39.70;;
21786;SDS011;11055;50.870;4.316;2024-03-07T03:01:16;61.03;;;39.97;;
21786;SDS011;11055;50.870;4.316;2024-03-07T03:03:42;59.03;;;38.53;;
21786;SDS011;11055;50.870;4.316;2024-03-07T03:06:08;59.92;;;39.35;;
21786;SDS011;11055;50.870;4.316;2024-03-07T03:08:36;60.35;;;39.58;;
21786;SDS011;11055;50.870;4.316;2024-03-07T03:11:02;61.60;;;40.70;;
21786;SDS011;11055;50.870;4.316;2024-03-07T03:13:28;63.10;;;40.97;;
21786;SDS011;11055;50.870;4.316;2024-03-07T03:15:54;60.70;;;41.05;;
21786;SDS011;11055;50.870;4.316;2024-03-07T03:18:23;63.45;;;39.88;;
21786;SDS011;11055;50.870;4.316;2024-03-07T03:20:49;66.28;;;41.95;;
21786;SDS011;11055;50.870;4.316;2024-03-07T03:23:15;64.68;;;40.63;;
21786;SDS011;11055;50.870;4.316;2024-03-07T03:25:41;64.43;;;41.78;;
21786;SDS011;11055;50.870;4.316;2024-03-07T03:28:08;69.60;;;44.45;;
21786;SDS011;11055;50.870;4.316;2024-03-07T03:30:35;67.65;;;42.30;;
21786;SDS011;11055;50.870;4.316;2024-03-07T03:33:04;63.55;;;42.55;;
21786;SDS011;11055;50.870;4.316;2024-03-07T03:35:33;63.22;;;40.85;;
21786;SDS011;11055;50.870;4.316;2024-03-07T03:37:59;65.57;;;43.65;;
21786;SDS011;11055;50.870;4.316;2024-03-07T03:40:26;66.25;;;43.42;;
21786;SDS011;11055;50.870;4.316;2024-03-07T03:42:52;70.72;;;44.08;;
21786;SDS011;11055;50.870;4.316;2024-03-07T03:45:18;71.78;;;44.88;;
21786;SDS011;11055;50.870;4.316;2024-03-07T03:47:44;72.00;;;45.83;;
21786;SDS011;11055;50.870;4.316;2024-03-07T03:50:10;76.72;;;45.92;;
21786;SDS011;11055;50.870;4.316;2024-03-07T03:52:37;67.95;;;44.05;;
21786;SDS011;11055;50.870;4.316;2024-03-07T03:55:04;73.20;;;45.47;;
21786;SDS011;11055;50.870;4.316;2024-03-07T03:57:40;73.93;;;45.38;;
21786;SDS011;11055;50.870;4.316;2024-03-07T04:00:07;72.82;;;45.13;;
21786;SDS011;11055;50.870;4.316;2024-03-07T04:02:44;73.05;;;45.40;;
21786;SDS011;11055;50.870;4.316;2024-03-07T04:05:14;72.07;;;46.22;;
21786;SDS011;11055;50.870;4.316;2024-03-07T04:07:41;76.53;;;46.42;;
21786;SDS011;11055;50.870;4.316;2024-03-07T04:10:08;78.75;;;47.38;;
21786;SDS011;11055;50.870;4.316;2024-03-07T04:12:35;74.45;;;47.17;;
21786;SDS011;11055;50.870;4.316;2024-03-07T04:15:02;78.07;;;47.80;;
21786;SDS011;11055;50.870;4.316;2024-03-07T04:17:41;76.55;;;46.15;;
21786;SDS011;11055;50.870;4.316;2024-03-07T04:20:07;79.30;;;47.45;;
21786;SDS011;11055;50.870;4.316;2024-03-07T04:22:35;75.90;;;47.53;;
21786;SDS011;11055;50.870;4.316;2024-03-07T04:25:04;77.15;;;45.55;;
21786;SDS011;11055;50.870;4.316;2024-03-07T04:27:31;82.68;;;46.60;;
21786;SDS011;11055;50.870;4.316;2024-03-07T04:29:59;78.03;;;45.55;;
21786;SDS011;11055;50.870;4.316;2024-03-07T04:32:28;80.80;;;49.55;;
21786;SDS011;11055;50.870;4.316;2024-03-07T04:34:54;80.25;;;48.17;;
21786;SDS011;11055;50.870;4.316;2024-03-07T04:37:22;82.30;;;48.22;;
21786;SDS011;11055;50.870;4.316;2024-03-07T04:39:48;79.13;;;47.03;;
21786;SDS011;11055;50.870;4.316;2024-03-07T04:42:14;77.40;;;46.60;;
21786;SDS011;11055;50.870;4.316;2024-03-07T04:44:40;79.15;;;47.85;;
21786;SDS011;11055;50.870;4.316;2024-03-07T04:47:06;82.30;;;47.88;;
21786;SDS011;11055;50.870;4.316;2024-03-07T04:49:32;82.60;;;48.13;;
21786;SDS011;11055;50.870;4.316;2024-03-07T04:51:59;82.30;;;48.20;;
21786;SDS011;11055;50.870;4.316;2024-03-07T04:54:26;83.40;;;46.67;;
21786;SDS011;11055;50.870;4.316;2024-03-07T04:56:53;85.03;;;49.00;;
21786;SDS011;11055;50.870;4.316;2024-03-07T04:59:20;87.72;;;48.88;;
21786;SDS011;11055;50.870;4.316;2024-03-07T05:01:47;79.60;;;46.58;;
21786;SDS011;11055;50.870;4.316;2024-03-07T05:04:14;78.25;;;47.33;;
21786;SDS011;11055;50.870;4.316;2024-03-07T05:06:41;88.70;;;50.33;;
21786;SDS011;11055;50.870;4.316;2024-03-07T05:09:08;84.03;;;49.08;;
21786;SDS011;11055;50.870;4.316;2024-03-07T05:11:35;84.80;;;47.95;;
21786;SDS011;11055;50.870;4.316;2024-03-07T05:14:01;86.10;;;49.28;;
21786;SDS011;11055;50.870;4.316;2024-03-07T05:16:28;91.93;;;49.60;;
21786;SDS011;11055;50.870;4.316;2024-03-07T05:18:55;96.28;;;50.63;;
21786;SDS011;11055;50.870;4.316;2024-03-07T05:21:24;89.25;;;50.00;;
21786;SDS011;11055;50.870;4.316;2024-03-07T05:24:00;95.78;;;51.10;;
21786;SDS011;11055;50.870;4.316;2024-03-07T05:26:26;104.35;;;52.88;;
21786;SDS011;11055;50.870;4.316;2024-03-07T05:28:52;108.82;;;52.45;;
21786;SDS011;11055;50.870;4.316;2024-03-07T05:31:20;108.10;;;53.08;;
21786;SDS011;11055;50.870;4.316;2024-03-07T05:33:49;103.90;;;53.58;;
21786;SDS011;11055;50.870;4.316;2024-03-07T05:36:15;107.85;;;54.25;;
21786;SDS011;11055;50.870;4.316;2024-03-07T05:38:43;115.93;;;53.08;;
21786;SDS011;11055;50.870;4.316;2024-03-07T05:41:12;112.53;;;53.90;;
21786;SDS011;11055;50.870;4.316;2024-03-07T05:43:39;113.38;;;53.30;;
21786;SDS011;11055;50.870;4.316;2024-03-07T05:46:05;107.95;;;53.40;;
21786;SDS011;11055;50.870;4.316;2024-03-07T05:48:32;114.05;;;54.03;;
21786;SDS011;11055;50.870;4.316;2024-03-07T05:50:58;114.50;;;53.85;;
21786;SDS011;11055;50.870;4.316;2024-03-07T05:53:25;120.47;;;54.42;;
21786;SDS011;11055;50.870;4.316;2024-03-07T05:55:51;117.30;;;51.55;;
21786;SDS011;11055;50.870;4.316;2024-03-07T05:58:17;110.57;;;52.88;;
21786;SDS011;11055;50.870;4.316;2024-03-07T06:00:44;120.68;;;54.25;;
21786;SDS011;11055;50.870;4.316;2024-03-07T06:03:14;118.80;;;55.42;;
21786;SDS011;11055;50.870;4.316;2024-03-07T06:05:45;118.28;;;56.45;;
21786;SDS011;11055;50.870;4.316;2024-03-07T06:08:14;118.57;;;53.25;;
21786;SDS011;11055;50.870;4.316;2024-03-07T06:10:42;125.22;;;54.95;;
21786;SDS011;11055;50.870;4.316;2024-03-07T06:13:10;118.07;;;53.95;;
21786;SDS011;11055;50.870;4.316;2024-03-07T06:15:37;123.65;;;56.83;;
21786;SDS011;11055;50.870;4.316;2024-03-07T06:18:04;121.50;;;54.47;;
21786;SDS011;11055;50.870;4.316;2024-03-07T06:20:30;124.53;;;53.88;;
21786;SDS011;11055;50.870;4.316;2024-03-07T06:22:57;126.50;;;54.38;;
21786;SDS011;11055;50.870;4.316;2024-03-07T06:25:22;125.55;;;54.20;;
21786;SDS011;11055;50.870;4.316;2024-03-07T06:28:02;125.00;;;56.55;;
21786;SDS011;11055;50.870;4.316;2024-03-07T06:30:39;124.60;;;55.60;;
21786;SDS011;11055;50.870;4.316;2024-03-07T06:33:06;127.47;;;54.53;;
21786;SDS011;11055;50.870;4.316;2024-03-07T06:35:32;129.57;;;54.83;;
21786;SDS011;11055;50.870;4.316;2024-03-07T06:38:02;130.13;;;53.05;;
21786;SDS011;11055;50.870;4.316;2024-03-07T06:40:28;126.50;;;55.30;;
21786;SDS011;11055;50.870;4.316;2024-03-07T06:42:54;131.10;;;54.88;;
21786;SDS011;11055;50.870;4.316;2024-03-07T06:45:22;132.55;;;54.08;;
21786;SDS011;11055;50.870;4.316;2024-03-07T06:47:49;121.00;;;52.83;;
21786;SDS011;11055;50.870;4.316;2024-03-07T06:50:17;122.55;;;53.47;;
21786;SDS011;11055;50.870;4.316;2024-03-07T06:52:45;124.70;;;51.00;;
21786;SDS011;11055;50.870;4.316;2024-03-07T06:55:13;119.05;;;51.80;;
21786;SDS011;11055;50.870;4.316;2024-03-07T06:57:41;120.97;;;52.00;;
21786;SDS011;11055;50.870;4.316;2024-03-07T07:00:08;116.70;;;52.10;;
21786;SDS011;11055;50.870;4.316;2024-03-07T07:02:39;122.47;;;54.50;;
21786;SDS011;11055;50.870;4.316;2024-03-07T07:05:06;134.13;;;52.08;;
21786;SDS011;11055;50.870;4.316;2024-03-07T07:07:38;120.90;;;53.50;;
21786;SDS011;11055;50.870;4.316;2024-03-07T07:10:07;107.00;;;50.83;;
21786;SDS011;11055;50.870;4.316;2024-03-07T07:12:34;110.20;;;49.72;;
21786;SDS011;11055;50.870;4.316;2024-03-07T07:15:00;110.70;;;50.88;;
21786;SDS011;11055;50.870;4.316;2024-03-07T07:17:26;109.70;;;49.90;;
21786;SDS011;11055;50.870;4.316;2024-03-07T07:19:54;138.75;;;50.50;;
21786;SDS011;11055;50.870;4.316;2024-03-07T07:22:21;109.93;;;52.47;;
21786;SDS011;11055;50.870;4.316;2024-03-07T07:24:46;114.28;;;50.63;;
21786;SDS011;11055;50.870;4.316;2024-03-07T07:27:12;109.20;;;49.95;;
21786;SDS011;11055;50.870;4.316;2024-03-07T07:29:38;112.88;;;51.08;;
21786;SDS011;11055;50.870;4.316;2024-03-07T07:32:04;103.25;;;49.13;;
21786;SDS011;11055;50.870;4.316;2024-03-07T07:34:30;109.45;;;52.35;;
21786;SDS011;11055;50.870;4.316;2024-03-07T07:36:56;111.32;;;52.88;;
21786;SDS011;11055;50.870;4.316;2024-03-07T07:39:22;117.47;;;50.25;;
21786;SDS011;11055;50.870;4.316;2024-03-07T07:41:47;114.25;;;50.88;;
21786;SDS011;11055;50.870;4.316;2024-03-07T07:44:13;106.15;;;49.45;;
21786;SDS011;11055;50.870;4.316;2024-03-07T07:46:39;100.90;;;50.20;;
21786;SDS011;11055;50.870;4.316;2024-03-07T07:49:05;114.30;;;50.97;;
21786;SDS011;11055;50.870;4.316;2024-03-07T07:51:31;111.50;;;51.70;;
21786;SDS011;11055;50.870;4.316;2024-03-07T07:53:57;101.45;;;52.80;;
21786;SDS011;11055;50.870;4.316;2024-03-07T07:56:24;103.88;;;51.47;;
21786;SDS011;11055;50.870;4.316;2024-03-07T07:58:49;103.65;;;48.22;;
21786;SDS011;11055;50.870;4.316;2024-03-07T08:01:16;107.25;;;51.97;;
21786;SDS011;11055;50.870;4.316;2024-03-07T08:03:43;108.90;;;48.85;;
21786;SDS011;11055;50.870;4.316;2024-03-07T08:06:09;106.90;;;49.03;;
21786;SDS011;11055;50.870;4.316;2024-03-07T08:08:35;99.05;;;49.08;;
21786;SDS011;11055;50.870;4.316;2024-03-07T08:11:01;100.45;;;50.67;;
21786;SDS011;11055;50.870;4.316;2024-03-07T08:13:27;98.22;;;49.92;;
21786;SDS011;11055;50.870;4.316;2024-03-07T08:15:52;103.68;;;49.53;;
21786;SDS011;11055;50.870;4.316;2024-03-07T08:18:21;103.70;;;49.63;;
21786;SDS011;11055;50.870;4.316;2024-03-07T08:20:46;102.35;;;48.72;;
21786;SDS011;11055;50.870;4.316;2024-03-07T08:23:12;94.22;;;49.00;;
21786;SDS011;11055;50.870;4.316;2024-03-07T08:25:38;99.55;;;47.22;;
21786;SDS011;11055;50.870;4.316;2024-03-07T08:28:05;99.97;;;49.05;;
21786;SDS011;11055;50.870;4.316;2024-03-07T08:30:31;99.43;;;49.45;;
21786;SDS011;11055;50.870;4.316;2024-03-07T08:32:57;98.13;;;48.75;;
21786;SDS011;11055;50.870;4.316;2024-03-07T08:35:24;95.25;;;49.00;;
21786;SDS011;11055;50.870;4.316;2024-03-07T08:37:51;97.88;;;47.97;;
21786;SDS011;11055;50.870;4.316;2024-03-07T08:40:18;97.38;;;47.53;;
21786;SDS011;11055;50.870;4.316;2024-03-07T08:42:52;90.18;;;48.22;;
21786;SDS011;11055;50.870;4.316;2024-03-07T08:45:22;90.75;;;46.45;;
21786;SDS011;11055;50.870;4.316;2024-03-07T08:47:48;89.97;;;46.83;;
21786;SDS011;11055;50.870;4.316;2024-03-07T08:50:15;87.97;;;45.70;;
21786;SDS011;11055;50.870;4.316;2024-03-07T08:52:43;87.30;;;44.53;;
21786;SDS011;11055;50.870;4.316;2024-03-07T08:55:12;83.22;;;44.92;;
21786;SDS011;11055;50.870;4.316;2024-03-07T08:57:39;82.38;;;44.45;;
21786;SDS011;11055;50.870;4.316;2024-03-07T09:00:08;84.28;;;44.83;;
21786;SDS011;11055;50.870;4.316;2024-03-07T09:02:36;84.05;;;43.70;;
21786;SDS011;11055;50.870;4.316;2024-03-07T09:05:03;85.28;;;44.45;;
21786;SDS011;11055;50.870;4.316;2024-03-07T09:07:30;92.72;;;44.78;;
21786;SDS011;11055;50.870;4.316;2024-03-07T09:09:56;88.82;;;46.35;;
21786;SDS011;11055;50.870;4.316;2024-03-07T09:12:22;89.97;;;46.65;;
21786;SDS011;11055;50.870;4.316;2024-03-07T09:14:50;91.50;;;47.08;;
21786;SDS011;11055;50.870;4.316;2024-03-07T09:17:17;88.65;;;45.60;;
21786;SDS011;11055;50.870;4.316;2024-03-07T09:19:43;87.05;;;45.97;;
21786;SDS011;11055;50.870;4.316;2024-03-07T09:22:09;88.32;;;47.42;;
21786;SDS011;11055;50.870;4.316;2024-03-07T09:24:34;85.63;;;45.00;;
21786;SDS011;11055;50.870;4.316;2024-03-07T09:27:02;89.80;;;45.58;;
21786;SDS011;11055;50.870;4.316;2024-03-07T09:29:28;83.97;;;46.55;;
21786;SDS011;11055;50.870;4.316;2024-03-07T09:31:54;81.35;;;44.80;;
21786;SDS011;11055;50.870;4.316;2024-03-07T09:34:21;81.70;;;45.25;;
21786;SDS011;11055;50.870;4.316;2024-03-07T09:36:47;79.32;;;44.65;;
21786;SDS011;11055;50.870;4.316;2024-03-07T09:39:14;79.30;;;43.03;;
21786;SDS011;11055;50.870;4.316;2024-03-07T09:41:40;80.38;;;42.63;;
21786;SDS011;11055;50.870;4.316;2024-03-07T09:44:10;83.07;;;46.70;;
21786;SDS011;11055;50.870;4.316;2024-03-07T09:46:40;84.68;;;45.63;;
21786;SDS011;11055;50.870;4.316;2024-03-07T09:49:06;81.15;;;43.80;;
21786;SDS011;11055;50.870;4.316;2024-03-07T09:51:35;83.28;;;44.92;;
21786;SDS011;11055;50.870;4.316;2024-03-07T09:54:02;75.13;;;42.47;;
21786;SDS011;11055;50.870;4.316;2024-03-07T09:56:28;80.80;;;43.15;;
21786;SDS011;11055;50.870;4.316;2024-03-07T09:59:03;79.85;;;45.17;;
21786;SDS011;11055;50.870;4.316;2024-03-07T10:01:33;79.50;;;44.63;;
21786;SDS011;11055;50.870;4.316;2024-03-07T10:04:00;81.90;;;46.72;;
21786;SDS011;11055;50.870;4.316;2024-03-07T10:06:35;82.70;;;46.38;;
21786;SDS011;11055;50.870;4.316;2024-03-07T10:09:01;78.53;;;46.47;;
21786;SDS011;11055;50.870;4.316;2024-03-07T10:11:28;88.47;;;48.67;;
21786;SDS011;11055;50.870;4.316;2024-03-07T10:13:54;76.63;;;44.95;;
21786;SDS011;11055;50.870;4.316;2024-03-07T10:16:20;79.80;;;45.17;;
21786;SDS011;11055;50.870;4.316;2024-03-07T10:18:46;82.82;;;45.53;;
21786;SDS011;11055;50.870;4.316;2024-03-07T10:21:15;72.85;;;43.63;;
21786;SDS011;11055;50.870;4.316;2024-03-07T10:23:44;81.25;;;45.92;;
21786;SDS011;11055;50.870;4.316;2024-03-07T10:26:09;81.05;;;46.97;;
21786;SDS011;11055;50.870;4.316;2024-03-07T10:28:35;81.70;;;46.58;;
21786;SDS011;11055;50.870;4.316;2024-03-07T10:31:03;79.72;;;45.70;;
21786;SDS011;11055;50.870;4.316;2024-03-07T10:33:34;73.53;;;44.88;;
21786;SDS011;11055;50.870;4.316;2024-03-07T10:36:01;73.32;;;45.25;;
21786;SDS011;11055;50.870;4.316;2024-03-07T10:38:27;80.13;;;47.63;;
21786;SDS011;11055;50.870;4.316;2024-03-07T10:40:53;75.53;;;44.38;;
21786;SDS011;11055;50.870;4.316;2024-03-07T10:43:23;79.18;;;46.67;;
21786;SDS011;11055;50.870;4.316;2024-03-07T10:45:54;76.60;;;47.15;;
21786;SDS011;11055;50.870;4.316;2024-03-07T10:48:24;72.30;;;43.83;;
21786;SDS011;11055;50.870;4.316;2024-03-07T10:51:02;72.88;;;42.45;;
21786;SDS011;11055;50.870;4.316;2024-03-07T10:59:19;63.85;;;39.42;;
21786;SDS011;11055;50.870;4.316;2024-03-07T11:01:53;68.97;;;41.75;;
21786;SDS011;11055;50.870;4.316;2024-03-07T11:04:38;67.38;;;41.08;;
21786;SDS011;11055;50.870;4.316;2024-03-07T11:07:04;60.33;;;37.45;;
21786;SDS011;11055;50.870;4.316;2024-03-07T11:09:31;61.92;;;38.75;;
21786;SDS011;11055;50.870;4.316;2024-03-07T11:12:01;61.45;;;38.33;;
21786;SDS011;11055;50.870;4.316;2024-03-07T11:14:32;54.45;;;36.50;;
21786;SDS011;11055;50.870;4.316;2024-03-07T11:17:00;56.97;;;37.63;;
21786;SDS011;11055;50.870;4.316;2024-03-07T11:19:30;60.58;;;36.85;;
21786;SDS011;11055;50.870;4.316;2024-03-07T11:21:59;59.00;;;37.17;;
21786;SDS011;11055;50.870;4.316;2024-03-07T11:24:27;55.35;;;36.40;;
21786;SDS011;11055;50.870;4.316;2024-03-07T11:26:56;56.47;;;36.97;;
21786;SDS011;11055;50.870;4.316;2024-03-07T11:29:38;52.38;;;35.20;;
21786;SDS011;11055;50.870;4.316;2024-03-07T11:32:15;52.40;;;33.83;;
21786;SDS011;11055;50.870;4.316;2024-03-07T11:34:42;54.22;;;34.05;;
21786;SDS011;11055;50.870;4.316;2024-03-07T11:37:16;50.85;;;33.92;;
21786;SDS011;11055;50.870;4.316;2024-03-07T11:44:54;44.55;;;31.52;;
21786;SDS011;11055;50.870;4.316;2024-03-07T11:47:23;48.83;;;31.77;;
21786;SDS011;11055;50.870;4.316;2024-03-07T11:50:00;46.95;;;31.77;;
21786;SDS011;11055;50.870;4.316;2024-03-07T11:52:27;46.67;;;32.55;;
21786;SDS011;11055;50.870;4.316;2024-03-07T11:54:53;43.20;;;31.48;;
21786;SDS011;11055;50.870;4.316;2024-03-07T11:57:22;44.33;;;31.17;;
21786;SDS011;11055;50.870;4.316;2024-03-07T11:59:58;45.15;;;30.98;;
21786;SDS011;11055;50.870;4.316;2024-03-07T12:02:26;42.95;;;29.42;;
21786;SDS011;11055;50.870;4.316;2024-03-07T12:04:52;40.92;;;28.65;;
21786;SDS011;11055;50.870;4.316;2024-03-07T12:07:18;39.17;;;27.95;;
21786;SDS011;11055;50.870;4.316;2024-03-07T12:09:48;37.83;;;26.88;;
21786;SDS011;11055;50.870;4.316;2024-03-07T12:12:19;36.10;;;24.67;;
21786;SDS011;11055;50.870;4.316;2024-03-07T12:14:53;33.65;;;26.52;;
21786;SDS011;11055;50.870;4.316;2024-03-07T12:17:22;35.20;;;26.77;;
21786;SDS011;11055;50.870;4.316;2024-03-07T12:19:49;32.05;;;23.92;;
21786;SDS011;11055;50.870;4.316;2024-03-07T12:22:21;31.48;;;24.90;;
21786;SDS011;11055;50.870;4.316;2024-03-07T12:24:48;34.50;;;24.40;;
21786;SDS011;11055;50.870;4.316;2024-03-07T12:27:33;31.02;;;25.38;;
21786;SDS011;11055;50.870;4.316;2024-03-07T12:29:59;29.20;;;23.75;;
21786;SDS011;11055;50.870;4.316;2024-03-07T12:32:46;30.63;;;24.95;;
21786;SDS011;11055;50.870;4.316;2024-03-07T12:35:13;29.52;;;24.75;;
21786;SDS011;11055;50.870;4.316;2024-03-07T12:37:39;28.00;;;24.83;;
21786;SDS011;11055;50.870;4.316;2024-03-07T12:40:16;31.08;;;23.90;;
21786;SDS011;11055;50.870;4.316;2024-03-07T12:42:46;25.75;;;23.05;;
21786;SDS011;11055;50.870;4.316;2024-03-07T12:45:12;26.85;;;23.67;;
21786;SDS011;11055;50.870;4.316;2024-03-07T12:47:43;27.30;;;24.10;;
21786;SDS011;11055;50.870;4.316;2024-03-07T12:50:09;28.70;;;25.70;;
21786;SDS011;11055;50.870;4.316;2024-03-07T12:52:35;31.00;;;26.25;;
21786;SDS011;11055;50.870;4.316;2024-03-07T12:55:01;29.92;;;26.77;;
21786;SDS011;11055;50.870;4.316;2024-03-07T12:57:27;30.73;;;27.05;;
21786;SDS011;11055;50.870;4.316;2024-03-07T12:59:53;30.90;;;26.55;;
21786;SDS011;11055;50.870;4.316;2024-03-07T13:02:20;28.80;;;25.30;;
21786;SDS011;11055;50.870;4.316;2024-03-07T13:04:51;29.88;;;26.25;;
21786;SDS011;11055;50.870;4.316;2024-03-07T13:07:16;33.20;;;27.52;;
21786;SDS011;11055;50.870;4.316;2024-03-07T13:09:42;29.77;;;25.80;;
21786;SDS011;11055;50.870;4.316;2024-03-07T13:12:09;29.95;;;26.70;;
21786;SDS011;11055;50.870;4.316;2024-03-07T13:14:35;31.02;;;26.75;;
21786;SDS011;11055;50.870;4.316;2024-03-07T13:17:04;33.13;;;27.13;;
21786;SDS011;11055;50.870;4.316;2024-03-07T13:19:31;30.73;;;27.00;;
21786;SDS011;11055;50.870;4.316;2024-03-07T13:21:58;31.77;;;26.95;;
21786;SDS011;11055;50.870;4.316;2024-03-07T13:24:25;31.17;;;25.58;;
21786;SDS011;11055;50.870;4.316;2024-03-07T13:26:52;28.38;;;25.23;;
21786;SDS011;11055;50.870;4.316;2024-03-07T13:29:19;28.77;;;25.30;;
21786;SDS011;11055;50.870;4.316;2024-03-07T13:31:50;28.15;;;25.33;;
21786;SDS011;11055;50.870;4.316;2024-03-07T13:34:16;28.25;;;25.33;;
21786;SDS011;11055;50.870;4.316;2024-03-07T13:36:43;29.08;;;25.92;;
21786;SDS011;11055;50.870;4.316;2024-03-07T13:39:09;29.52;;;25.27;;
21786;SDS011;11055;50.870;4.316;2024-03-07T13:41:37;28.65;;;25.33;;
21786;SDS011;11055;50.870;4.316;2024-03-07T13:44:03;29.77;;;24.40;;
21786;SDS011;11055;50.870;4.316;2024-03-07T13:46:30;26.30;;;23.55;;
21786;SDS011;11055;50.870;4.316;2024-03-07T13:48:57;26.58;;;23.77;;
21786;SDS011;11055;50.870;4.316;2024-03-07T13:51:32;26.20;;;23.45;;
21786;SDS011;11055;50.870;4.316;2024-03-07T13:54:00;27.35;;;24.55;;
21786;SDS011;11055;50.870;4.316;2024-03-07T13:56:50;26.98;;;24.17;;
21786;SDS011;11055;50.870;4.316;2024-03-07T14:23:30;23.80;;;20.83;;
21786;SDS011;11055;50.870;4.316;2024-03-07T14:31:41;23.08;;;20.63;;
21786;SDS011;11055;50.870;4.316;2024-03-07T14:36:57;24.48;;;20.85;;
21786;SDS011;11055;50.870;4.316;2024-03-07T14:39:44;25.45;;;20.35;;
21786;SDS011;11055;50.870;4.316;2024-03-07T14:44:42;23.95;;;19.90;;
21786;SDS011;11055;50.870;4.316;2024-03-07T14:47:11;25.13;;;20.15;;
21786;SDS011;11055;50.870;4.316;2024-03-07T14:49:39;26.90;;;21.70;;
21786;SDS011;11055;50.870;4.316;2024-03-07T14:52:05;28.42;;;22.00;;
21786;SDS011;11055;50.870;4.316;2024-03-07T14:54:38;28.33;;;22.45;;
21786;SDS011;11055;50.870;4.316;2024-03-07T14:57:05;27.40;;;22.52;;
21786;SDS011;11055;50.870;4.316;2024-03-07T14:59:35;27.15;;;23.40;;
21786;SDS011;11055;50.870;4.316;2024-03-07T15:02:01;26.08;;;21.45;;
21786;SDS011;11055;50.870;4.316;2024-03-07T15:04:29;27.20;;;20.92;;
21786;SDS011;11055;50.870;4.316;2024-03-07T15:06:57;26.50;;;21.35;;